• Join FlightAware (Why Join?)
  • Login
  • US Flag 
04:58PM EDT


 

Airport Tracker/Info


-or-


 

Live Flight TrackerFlight Track Log ✈ N700ZF ✈ 20-Dec-2013 ✈ KORL - KMRT

Flight Track Log - Related Links

Times and Time Zones

All times are in EST time to prevent confusion due to time zone crossing. See the N700ZF flight status page for this flight to view local times or setup timezone preferences in your user account.

Time Position Orientation Groundspeed Altitude Reporting Facility
EST Latitude Longitude Course Direction KTS MPH feet Rate Location/Type
03:53PM 28.5667 -81.3000 60° Northeast 141 162 1,000  Level Orlando TRACON
03:54PM 28.5833 -81.2667 60° Northeast 175 201 1,500 300 Climbing Orlando TRACON
03:55PM 28.6333 -81.2667 360° North 186 214 1,500 300 Level Orlando TRACON
03:56PM 28.6833 -81.2667 360° North 184 212 2,100 900 Climbing Orlando TRACON
03:57PM 28.7333 -81.2833 344° North 186 214 3,400 1,320 Climbing Orlando TRACON
03:58PM 28.7833 -81.3000 344° North 166 191 4,800 1,380 Climbing Orlando TRACON
03:59PM 28.8167 -81.3167 336° Northwest 167 192 6,200 1,380 Climbing Orlando TRACON
04:00PM 28.8667 -81.3333 344° North 156 180 7,600 1,320 Climbing Orlando TRACON
04:01PM 28.9000 -81.3333 360° North 158 182 8,900 1,260 Climbing Orlando TRACON
04:02PM 28.9547 -81.3619 335° Northwest 169 194 10,500 1,260 Climbing Jacksonville Center
04:03PM 28.9986 -81.3756 345° North 169 194 11,800 1,260 Climbing Jacksonville Center
04:04PM 29.0467 -81.3819 353° North 169 194 13,100 1,200 Climbing Jacksonville Center
04:05PM 29.0950 -81.3908 351° North 169 194 14,300 1,020 Climbing Jacksonville Center
04:06PM 29.1472 -81.3969 354° North 175 201 15,200 960 Climbing Jacksonville Center
04:07PM 29.1994 -81.4033 354° North 181 208 16,300 1,020 Climbing Jacksonville Center
04:08PM 29.2558 -81.4025 North 191 220 17,300 840 Climbing Jacksonville Center
04:09PM 29.3122 -81.4064 357° North 191 220 18,000 840 Climbing Jacksonville Center
04:10PM 29.3625 -81.4178 349° North 191 220 19,000 900 Climbing Jacksonville Center
04:11PM 29.4189 -81.4192 359° North 191 220 19,800 720 Climbing Jacksonville Center
04:12PM 29.4731 -81.4231 356° North 196 226 20,500 600 Climbing Jacksonville Center
04:13PM 29.5294 -81.4294 354° North 196 226 21,100 600 Climbing Jacksonville Center
04:14PM 29.5858 -81.4358 354° North 202 232 21,700 600 Climbing Jacksonville Center
04:15PM 29.6425 -81.4422 354° North 202 232 22,400 660 Climbing Jacksonville Center
04:16PM 29.6989 -81.4461 357° North 202 232 23,100 660 Climbing Jacksonville Center
04:17PM 29.7553 -81.4522 355° North 202 232 23,800 660 Climbing Jacksonville Center
04:18PM 29.8117 -81.4586 354° North 202 232 24,500 660 Climbing Jacksonville Center
04:19PM 29.8703 -81.4625 357° North 202 232 25,200 600 Climbing Jacksonville Center
04:20PM 29.9267 -81.4714 352° North 202 232 25,800 600 Climbing Jacksonville Center
04:21PM 29.9850 -81.4753 357° North 202 232 26,400 540 Climbing Jacksonville Center
04:22PM 30.0436 -81.4817 355° North 202 232 26,900 300 Climbing Jacksonville Center
04:23PM 30.1042 -81.4881 355° North 208 239 27,000  Climbing Jacksonville Center
04:24PM 30.1692 -81.4942 355° North 220 253 27,000  Level Jacksonville Center
04:25PM 30.2381 -81.5006 355° North 232 267 27,000  Level Jacksonville Center
04:26PM 30.3111 -81.5067 356° North 244 281 27,000  Level Jacksonville Center
04:27PM 30.3822 -81.5153 354° North 250 288 27,000  Level Jacksonville Center
04:28PM 30.4533 -81.5336 347° North 256 295 27,000  Level Jacksonville Center
04:29PM 30.5267 -81.5444 353° North 256 295 27,000  Level Jacksonville Center
04:30PM 30.5997 -81.5556 353° North 256 295 27,000  Level Jacksonville Center
04:31PM 30.6731 -81.5667 353° North 256 295 27,000  Level Jacksonville Center
04:32PM 30.7483 -81.5775 353° North 261 300 27,000  Level Jacksonville Center
04:33PM 30.8194 -81.5911 351° North 261 300 27,000  Level Jacksonville Center
04:34PM 30.8925 -81.6022 353° North 256 295 27,000  Level Jacksonville Center
04:35PM 30.9658 -81.6158 351° North 256 295 27,000  Level Jacksonville Center
04:36PM 31.0389 -81.6269 353° North 256 295 27,000  Level Jacksonville Center
04:37PM 31.1122 -81.6406 351° North 256 295 27,000  Level Jacksonville Center
04:38PM 31.1833 -81.6542 351° North 256 295 27,000  Level Jacksonville Center
04:39PM 31.2586 -81.6653 353° North 256 295 27,000  Level Jacksonville Center
04:40PM 31.3297 -81.6789 351° North 256 295 27,000  Level Jacksonville Center
04:41PM 31.4008 -81.6878 354° North 256 295 27,000  Level Jacksonville Center
04:42PM 31.4825 -81.7014 352° North 265 305 27,000  Level Jacksonville Center
04:43PM 31.5514 -81.7150 350° North 259 298 27,000  Level Jacksonville Center
04:44PM 31.6267 -81.7264 353° North 259 298 27,000  Level Jacksonville Center
04:45PM 31.6914 -81.7378 351° North 259 298 27,000  Level Jacksonville Center
04:46PM 31.7647 -81.7514 351° North 264 304 27,000  Level Jacksonville Center
04:47PM 31.8464 -81.7675 350° North 264 304 27,000  Level Jacksonville Center
04:48PM 31.9217 -81.7789 353° North 264 304 27,000  Level Jacksonville Center
04:49PM 31.9947 -81.7903 352° North 264 304 27,000  Level Jacksonville Center
04:50PM 32.0617 -81.8017 352° North 264 304 27,000  Level Jacksonville Center
04:51PM 32.1347 -81.8106 354° North 264 304 27,000  Level Jacksonville Center
04:53PM 32.2861 -81.8325 353° North 275 316 27,000  Level Atlanta Center
04:54PM 32.3575 -81.8506 348° North 275 316 27,000  Level Atlanta Center
04:55PM 32.4308 -81.8633 352° North 275 316 27,000  Level Atlanta Center
04:56PM 32.5061 -81.8739 353° North 270 311 27,000  Level Atlanta Center
04:57PM 32.5794 -81.8894 350° North 270 311 27,000  Level Atlanta Center
04:58PM 32.6569 -81.8997 354° North 270 311 27,000  Level Atlanta Center
04:59PM 32.7322 -81.9153 350° North 275 316 27,000  Level Atlanta Center
05:00PM 32.8033 -81.9283 351° North 275 316 27,000  Level Atlanta Center
05:01PM 32.8744 -81.9389 353° North 275 316 27,000  Level Atlanta Center
05:02PM 32.9478 -81.9519 352° North 275 316 27,000  Level Atlanta Center
05:03PM 33.0253 -81.9650 352° North 275 316 27,000  Level Atlanta Center
05:04PM 33.1006 -81.9781 352° North 275 316 27,000  Level Atlanta Center
05:05PM 33.1761 -81.9936 350° North 275 316 27,000  Level Atlanta Center
05:06PM 33.2514 -82.0044 353° North 275 316 27,000  Level Atlanta Center
05:07PM 33.3267 -82.0200 350° North 275 316 27,000  Level Atlanta Center
05:08PM 33.4022 -82.0333 352° North 275 316 27,000  Level Atlanta Center
05:09PM 33.4775 -82.0489 350° North 275 316 27,000  Level Atlanta Center
05:10PM 33.5528 -82.0622 352° North 275 316 27,000  Level Atlanta Center
05:11PM 33.6303 -82.0728 354° North 275 316 27,000  Level Atlanta Center
05:12PM 33.7056 -82.0886 350° North 275 316 27,000  Level Atlanta Center
05:13PM 33.7811 -82.0994 353° North 275 316 27,000  Level Atlanta Center
05:14PM 33.8669 -82.1150 351° North 275 316 27,000  Level Atlanta Center
05:15PM 33.9442 -82.1283 352° North 275 316 27,000  Level Atlanta Center
05:16PM 34.0197 -82.1442 350° North 275 316 27,000  Level Atlanta Center
05:17PM 34.0992 -82.1547 354° North 275 316 27,000  Level Atlanta Center
05:18PM 34.1767 -82.1681 352° North 275 316 27,000  Level Atlanta Center
05:19PM 34.2539 -82.1842 350° North 280 322 27,000  Level Atlanta Center
05:20PM 34.3314 -82.1975 352° North 280 322 27,000  Level Atlanta Center
05:21PM 34.4111 -82.2133 351° North 280 322 27,000  Level Atlanta Center
05:22PM 34.4883 -82.2267 352° North 280 322 27,000  Level Atlanta Center
05:23PM 34.5658 -82.2428 350° North 280 322 27,000  Level Atlanta Center
05:24PM 34.6433 -82.2561 352° North 280 322 27,000  Level Atlanta Center
05:25PM 34.7208 -82.2722 350° North 280 322 27,000  Level Atlanta Center
05:26PM 34.7981 -82.2858 352° North 280 322 27,000  Level Atlanta Center
05:27PM 34.8672 -82.2944 354° North 280 322 27,000  Level Atlanta Center
05:28PM 34.9444 -82.3106 350° North 280 322 27,000  Level Atlanta Center
05:29PM 35.0200 -82.3294 348° North 275 316 27,000  Level Atlanta Center
05:30PM 35.0953 -82.3431 352° North 275 316 27,000  Level Atlanta Center
05:31PM 35.1725 -82.3567 352° North 275 316 27,000  Level Atlanta Center
05:32PM 35.2583 -82.3703 353° North 275 316 27,000  Level Atlanta Center
05:33PM 35.3336 -82.3839 352° North 275 316 27,000  Level Atlanta Center
05:34PM 35.4089 -82.4003 350° North 275 316 27,000  Level Atlanta Center
05:35PM 35.4864 -82.4142 352° North 275 316 27,000  Level Atlanta Center
05:36PM 35.5597 -82.4306 350° North 275 316 27,000  Level Atlanta Center
05:37PM 35.6392 -82.4442 352° North 275 316 27,000  Level Atlanta Center
05:38PM 35.7164 -82.4556 353° North 275 316 27,000  Level Atlanta Center
05:39PM 35.7894 -82.4694 351° North 275 316 27,000  Level Atlanta Center
05:40PM 35.8669 -82.4858 350° North 275 316 27,000  Level Atlanta Center
05:41PM 35.9444 -82.4997 352° North 275 316 27,000  Level Atlanta Center
05:42PM 36.0217 -82.5139 352° North 275 316 27,000  Level Atlanta Center
05:43PM 36.0989 -82.5278 352° North 275 316 27,000  Level Atlanta Center
05:44PM 36.1764 -82.5417 352° North 275 316 27,000  Level Atlanta Center
05:45PM 36.2494 -82.5533 353° North 275 316 27,000  Level Atlanta Center
05:46PM 36.3269 -82.5672 352° North 275 316 27,000  Level Atlanta Center
05:47PM 36.4000 -82.5789 353° North 270 311 27,000  Level Atlanta Center
05:48PM 36.4753 -82.5956 350° North 270 311 27,000  Level Atlanta Center
05:49PM 36.5483 -82.6097 351° North 270 311 27,000  Level Atlanta Center
05:51PM 36.6578 -82.6283 352° North 266 306 27,000  Level Indianapolis Center
05:52PM 36.7294 -82.6444 350° North 263 303 27,000  Level Indianapolis Center
05:53PM 36.8025 -82.6583 351° North 266 306 27,000  Level Indianapolis Center
05:54PM 36.8867 -82.6747 351° North 263 303 27,000  Level Indianapolis Center
05:55PM 36.9597 -82.6867 353° North 266 306 27,000  Level Indianapolis Center
05:56PM 37.0308 -82.7025 350° North 262 302 27,000  Level Indianapolis Center
05:57PM 37.1031 -82.7153 352° North 264 304 27,000  Level Indianapolis Center
05:58PM 37.1864 -82.7347 349° North 262 302 27,000  Level Indianapolis Center
05:59PM 37.2606 -82.7469 353° North 267 307 27,000  Level Indianapolis Center
06:00PM 37.3328 -82.7642 349° North 265 305 27,000  Level Indianapolis Center
06:01PM 37.4069 -82.7769 352° North 269 310 27,000  Level Indianapolis Center
06:02PM 37.4803 -82.7925 350° North 267 307 27,000  Level Indianapolis Center
06:03PM 37.5675 -82.8075 352° North 270 311 27,000  Level Indianapolis Center
06:04PM 37.6406 -82.8231 350° North 267 307 27,000  Level Indianapolis Center
06:05PM 37.7147 -82.8347 353° North 268 308 27,000  Level Indianapolis Center
06:06PM 37.7881 -82.8519 349° North 266 306 27,000  Level Indianapolis Center
06:07PM 37.8619 -82.8650 352° North 267 307 27,000  Level Indianapolis Center
06:08PM 37.9472 -82.8842 350° North 265 305 27,000  Level Indianapolis Center
06:09PM 38.0203 -82.8994 351° North 265 305 27,000  Level Indianapolis Center
06:10PM 38.0950 -82.9144 351° North 270 311 27,000 -480 Level Indianapolis Center
06:11PM 38.1733 -82.9272 353° North 283 326 26,100 -900 Descending Indianapolis Center
06:12PM 38.2536 -82.9456 350° North 290 334 25,200 -900 Descending Indianapolis Center
06:13PM 38.3361 -82.9600 352° North 297 342 24,300 -600 Descending Indianapolis Center
06:14PM 38.4272 -82.9786 351° North 285 328 24,000 -180 Descending Indianapolis Center
06:16PM 38.5014 -82.9922 352° North 272 313 24,000  Level Indianapolis Center
06:17PM 38.5717 -83.0083 350° North 259 298 24,000  Level Indianapolis Center
06:18PM 38.6506 -83.0239 351° North 260 299 24,000 -360 Level Indianapolis Center
06:20PM 38.7958 -83.0569 350° North 269 310 23,000 -780 Descending Indianapolis Center
06:21PM 38.8767 -83.0736 351° North 287 330 21,700 -1,260 Descending Indianapolis Center
06:22PM 38.9606 -83.0933 350° North 302 348 20,400 -1,320 Descending Indianapolis Center
06:23PM 39.0439 -83.1067 353° North 300 345 19,000 -1,440 Descending Indianapolis Center
06:24PM 39.1250 -83.1239 351° North 295 339 17,500 -1,500 Descending Indianapolis Center
06:25PM 39.2103 -83.1392 352° North 291 335 16,000 -1,560 Descending Indianapolis Center
06:26PM 39.3017 -83.1586 351° North 277 319 14,400 -1,380 Descending Indianapolis Center
06:26PM 39.2875 -83.1544 167° South 284 327 14,600 -1,320 Climbing Indianapolis Center
06:26PM 39.3406 -83.1678 349° North 273 314 13,600 -1,560 Descending Indianapolis Center
06:27PM 39.3753 -83.1739 352° North 271 312 13,000 -1,500 Descending Indianapolis Center
06:27PM 39.4189 -83.1858 348° North 261 300 12,100 -1,500 Descending Indianapolis Center
06:28PM 39.4461 -83.1869 358° North 260 299 11,500 -1,380 Descending Indianapolis Center
06:28PM 39.4917 -83.1922 355° North 272 313 10,700 -1,260 Descending Indianapolis Center
06:29PM 39.5186 -83.1814 17° North 267 307 10,200 -600 Descending Indianapolis Center
06:30PM 39.5653 -83.1717 North 270 311 10,100 -120 Descending Indianapolis Center
06:30PM 39.5914 -83.1683 North 265 305 10,100  Level Indianapolis Center
06:31PM 39.6347 -83.1694 359° North 239 275 10,100  Level Indianapolis Center
06:31PM 39.6564 -83.1644 10° North 240 276 10,100  Level Indianapolis Center
06:32PM 39.7006 -83.1639 North 241 277 10,100  Level Indianapolis Center
06:32PM 39.7347 -83.1611 North 237 273 10,100  Level Indianapolis Center
06:33PM 39.7639 -83.1606 North 228 262 10,100 -720 Level Indianapolis Center
06:33PM 39.7992 -83.1592 North 233 268 9,400 -1,320 Descending Indianapolis Center
06:34PM 39.8328 -83.1636 354° North 258 297 8,800 -1,260 Descending Indianapolis Center
06:34PM 39.8706 -83.1603 North 255 293 8,100 -1,380 Descending Indianapolis Center
06:35PM 39.9072 -83.1539 North 251 289 7,400 -1,380 Descending Indianapolis Center
06:35PM 39.9397 -83.1514 North 253 291 6,700 -1,440 Descending Indianapolis Center
06:36PM 39.9744 -83.1542 356° North 236 272 6,000 -1,380 Descending Indianapolis Center
06:36PM 40.0050 -83.1497 North 241 277 5,300 -1,500 Descending Indianapolis Center
06:37PM 40.0428 -83.1433 North 242 278 4,500 -1,200 Descending Indianapolis Center
06:37PM 40.0825 -83.1422 North 237 273 4,100 -600 Descending Indianapolis Center
06:38PM 40.1061 -83.1400 North 224 258 3,900 -1,020 Descending Indianapolis Center
06:38PM 40.1431 -83.1367 North 228 262 3,100 -840 Descending Indianapolis Center
06:39PM 40.1656 -83.1361 North 221 254 3,100  Level Indianapolis Center
06:39PM 40.2017 -83.1319 North 221 254 3,100  Level Indianapolis Center
06:40PM 40.2178 -83.1364 348° North 179 206 3,100 -120 Level Indianapolis Center
06:40PM 40.2286 -83.1539 309° West 153 176 3,000 -420 Descending Indianapolis Center
06:41PM 40.2361 -83.1667 308° West 91 105 2,700 -540 Descending Indianapolis Center
06:41PM 40.2431 -83.1861 295° West 120 138 2,500 -420 Descending Indianapolis Center
06:42PM 40.2414 -83.1978 259° West 84 97 2,300 -240 Descending Indianapolis Center
06:42PM 40.2339 -83.2239 249° West 99 114 2,300 60 Level Indianapolis Center
06:43PM 40.2339 -83.2322 270° West 97 112 2,400 -120 Climbing Indianapolis Center
06:43PM 40.2331 -83.2569 267° West 93 107 2,200 -420 Descending Indianapolis Center
06:44PM 40.2325 -83.2675 266° West 100 115 2,000 -720 Descending Indianapolis Center
06:44PM 40.2300 -83.2931 263° West 95 109 1,500 -720 Descending Indianapolis Center
06:45PM 40.2269 -83.3025 247° West 109 125 1,300 -120 Descending Indianapolis Center
06:46PM 40.2253 -83.3383 267° West 100 115 1,400 120 Climbing Indianapolis Center